createdAt,value
2019-02-27T00:00:32.199Z,12.50
2019-02-27T00:03:00.790Z,13.90
2019-02-27T00:05:29.231Z,13.27
2019-02-27T00:07:58.345Z,13.97
2019-02-27T00:10:26.754Z,14.83
2019-02-27T00:12:55.148Z,12.63
2019-02-27T00:15:23.891Z,12.00
2019-02-27T00:17:53.199Z,12.50
2019-02-27T00:20:21.586Z,11.73
2019-02-27T00:22:50.759Z,11.00
2019-02-27T00:25:19.981Z,11.23
2019-02-27T00:27:49.311Z,11.70
2019-02-27T00:30:18.507Z,10.10
2019-02-27T00:32:50.916Z,11.20
2019-02-27T00:35:17.026Z,10.80
2019-02-27T00:37:45.424Z,10.33
2019-02-27T00:40:14.053Z,10.03
2019-02-27T00:42:42.812Z,10.17
2019-02-27T00:45:11.977Z,10.83
2019-02-27T00:47:40.427Z,10.57
2019-02-27T00:50:10.243Z,10.50
2019-02-27T00:52:38.733Z,10.40
2019-02-27T00:55:08.457Z,10.10
2019-02-27T00:57:36.853Z,10.53
2019-02-27T01:00:14.589Z,11.10
2019-02-27T01:02:43.872Z,11.10
2019-02-27T01:05:12.535Z,10.20
2019-02-27T01:07:41.350Z,9.37
2019-02-27T01:10:12.286Z,9.63
2019-02-27T01:12:41.617Z,10.90
2019-02-27T01:15:12.489Z,11.20
2019-02-27T01:17:41.042Z,11.50
2019-02-27T01:20:12.117Z,11.87
2019-02-27T01:22:40.769Z,11.43
2019-02-27T01:25:09.610Z,11.90
2019-02-27T01:27:38.673Z,11.17
2019-02-27T01:30:10.137Z,11.83
2019-02-27T01:32:38.524Z,11.30
2019-02-27T01:35:09.587Z,11.10
2019-02-27T01:37:38.068Z,10.57
2019-02-27T01:40:09.511Z,10.63
2019-02-27T01:42:37.896Z,10.70
2019-02-27T01:45:09.856Z,10.80
2019-02-27T01:47:38.250Z,10.20
2019-02-27T01:50:26.859Z,10.47
2019-02-27T01:52:55.325Z,10.30
2019-02-27T01:55:23.713Z,10.13
2019-02-27T01:57:52.449Z,10.20
2019-02-27T02:00:23.279Z,10.70
2019-02-27T02:02:51.763Z,10.60
2019-02-27T02:05:20.161Z,9.37
2019-02-27T02:07:49.348Z,9.80
2019-02-27T02:10:18.125Z,9.77
2019-02-27T02:12:55.659Z,9.33
2019-02-27T02:15:52.760Z,9.10
2019-02-27T02:18:42.167Z,9.47
2019-02-27T02:21:32.112Z,8.80
2019-02-27T02:24:25.911Z,9.00
2019-02-27T02:27:08.852Z,9.70
2019-02-27T02:29:59.746Z,9.53
2019-02-27T02:32:52.337Z,9.03
2019-02-27T02:35:49.778Z,8.70
2019-02-27T02:38:30.509Z,9.20
2019-02-27T02:41:17.474Z,9.43
2019-02-27T02:44:06.917Z,8.80
2019-02-27T02:47:00.884Z,9.00
2019-02-27T02:49:49.138Z,8.80
2019-02-27T02:52:32.758Z,8.70
2019-02-27T02:55:12.726Z,8.60
2019-02-27T02:57:43.745Z,9.47
2019-02-27T03:00:24.013Z,8.33
2019-02-27T03:03:04.314Z,9.17
2019-02-27T03:05:44.707Z,9.10
2019-02-27T03:08:25.032Z,8.80
2019-02-27T03:11:08.726Z,9.07
2019-02-27T03:13:41.857Z,8.40
2019-02-27T03:16:19.169Z,8.20
2019-02-27T03:19:14.621Z,9.40
2019-02-27T03:21:48.708Z,8.60
2019-02-27T03:24:27.939Z,9.23
2019-02-27T03:27:08.406Z,8.80
2019-02-27T03:29:53.394Z,8.30
2019-02-27T03:32:41.210Z,8.70
2019-02-27T03:35:12.761Z,8.40
2019-02-27T03:37:52.559Z,7.87
2019-02-27T03:40:29.512Z,8.30
2019-02-27T03:43:20.829Z,8.40
2019-02-27T03:45:55.239Z,9.33
2019-02-27T03:48:32.409Z,9.03
2019-02-27T03:51:15.814Z,8.67
2019-02-27T03:54:04.924Z,8.47
2019-02-27T03:56:54.180Z,8.37
2019-02-27T03:59:28.335Z,8.20
2019-02-27T04:02:19.242Z,8.27
2019-02-27T04:05:08.590Z,8.33
2019-02-27T04:07:54.205Z,8.17
2019-02-27T04:10:22.602Z,8.43
2019-02-27T04:12:52.281Z,8.20
2019-02-27T04:15:20.754Z,8.37
2019-02-27T04:17:51.830Z,8.83
2019-02-27T04:20:18.342Z,8.77
2019-02-27T04:22:46.721Z,8.60
2019-02-27T04:25:15.174Z,8.70
2019-02-27T04:27:43.569Z,8.67
2019-02-27T04:30:14.926Z,8.77
2019-02-27T04:32:47.665Z,8.23
2019-02-27T04:35:12.799Z,8.50
2019-02-27T04:37:41.184Z,8.03
2019-02-27T04:40:11.195Z,8.10
2019-02-27T04:42:39.893Z,7.87
2019-02-27T04:45:12.365Z,7.90
2019-02-27T04:47:40.633Z,8.50
2019-02-27T04:50:11.290Z,9.30
2019-02-27T04:52:39.135Z,8.20
2019-02-27T04:55:07.922Z,8.60
2019-02-27T04:57:36.300Z,7.90
2019-02-27T05:00:05.933Z,8.43
2019-02-27T05:02:34.313Z,8.07
2019-02-27T05:05:02.752Z,7.50
2019-02-27T05:07:31.221Z,7.60
2019-02-27T05:09:59.612Z,7.90
2019-02-27T05:12:27.989Z,7.40
2019-02-27T05:14:56.377Z,7.20
2019-02-27T05:17:24.761Z,7.50
2019-02-27T05:19:53.146Z,7.40
2019-02-27T05:22:26.428Z,8.80
2019-02-27T05:24:51.641Z,7.70
2019-02-27T05:27:20.019Z,7.80
2019-02-27T05:29:48.636Z,7.70
2019-02-27T05:32:18.237Z,7.53
2019-02-27T05:34:49.784Z,8.97
2019-02-27T05:37:16.913Z,8.40
2019-02-27T05:39:45.293Z,8.40
2019-02-27T05:42:13.664Z,7.60
2019-02-27T05:44:42.057Z,8.07
2019-02-27T05:47:11.088Z,8.73
2019-02-27T05:49:40.324Z,8.37
2019-02-27T05:52:08.794Z,8.23
2019-02-27T05:54:37.290Z,8.20
2019-02-27T05:57:05.799Z,8.40
2019-02-27T05:59:34.190Z,8.80
2019-02-27T06:02:02.575Z,9.63
2019-02-27T06:04:31.325Z,8.80
2019-02-27T06:06:59.714Z,9.07
2019-02-27T06:09:28.101Z,8.93
2019-02-27T06:11:56.582Z,9.43
2019-02-27T06:14:24.976Z,9.10
2019-02-27T06:16:53.380Z,11.03
2019-02-27T06:19:22.019Z,9.07
2019-02-27T06:21:50.398Z,9.87
2019-02-27T06:24:19.186Z,8.97
2019-02-27T06:26:47.563Z,9.47
2019-02-27T06:29:15.953Z,10.07
2019-02-27T06:31:44.567Z,9.47
2019-02-27T06:34:12.931Z,9.93
2019-02-27T06:36:42.882Z,10.00
2019-02-27T06:39:11.710Z,10.27
2019-02-27T06:41:40.095Z,10.30
2019-02-27T06:44:08.535Z,10.70
2019-02-27T06:46:36.922Z,11.37
2019-02-27T06:49:05.299Z,10.37
2019-02-27T06:51:35.862Z,12.70
2019-02-27T06:54:03.831Z,11.03
2019-02-27T06:56:32.454Z,13.00
2019-02-27T06:59:00.856Z,12.70
2019-02-27T07:01:29.253Z,11.90
2019-02-27T07:03:57.662Z,11.00
2019-02-27T07:06:26.064Z,11.00
2019-02-27T07:08:54.476Z,11.00
2019-02-27T07:11:22.911Z,10.47
2019-02-27T07:13:51.345Z,11.63
2019-02-27T07:16:20.438Z,10.33
2019-02-27T07:18:50.174Z,10.77
2019-02-27T07:21:18.559Z,12.00
2019-02-27T07:23:46.965Z,11.40
2019-02-27T07:26:15.815Z,13.10
2019-02-27T07:28:45.278Z,10.80
2019-02-27T07:31:17.592Z,12.13
2019-02-27T07:33:43.768Z,12.50
2019-02-27T07:36:12.651Z,12.40
2019-02-27T07:38:41.038Z,13.40
2019-02-27T07:41:09.712Z,12.23
2019-02-27T07:43:38.613Z,12.77
2019-02-27T07:46:07.003Z,11.97
2019-02-27T07:48:35.465Z,12.83
2019-02-27T07:51:03.879Z,12.57
2019-02-27T07:53:32.270Z,12.57
2019-02-27T07:56:00.787Z,12.13
2019-02-27T07:58:33.654Z,11.57
2019-02-27T08:00:59.434Z,11.77
2019-02-27T08:03:27.991Z,11.83
2019-02-27T08:05:56.378Z,10.73
2019-02-27T08:08:24.772Z,9.90
2019-02-27T08:10:53.436Z,10.40
2019-02-27T08:13:21.814Z,11.00
2019-02-27T08:15:50.193Z,9.57
2019-02-27T08:18:23.139Z,10.00
2019-02-27T08:20:48.884Z,9.60
2019-02-27T08:23:17.353Z,9.77
2019-02-27T08:25:45.763Z,11.33
2019-02-27T08:28:14.415Z,11.30
2019-02-27T08:30:43.103Z,10.83
2019-02-27T08:33:11.790Z,10.20
2019-02-27T08:35:40.248Z,11.30
2019-02-27T08:38:08.953Z,11.17
2019-02-27T08:40:37.464Z,11.13
2019-02-27T08:43:06.128Z,11.30
2019-02-27T08:45:34.509Z,12.67
2019-02-27T08:48:03.115Z,11.70
2019-02-27T08:50:32.292Z,11.23
2019-02-27T08:53:00.935Z,10.00
2019-02-27T08:55:29.320Z,11.97
2019-02-27T08:57:57.734Z,9.67
2019-02-27T09:00:31.596Z,10.50
2019-02-27T09:03:02.852Z,11.23
2019-02-27T09:05:31.025Z,11.83
2019-02-27T09:07:59.412Z,11.30
2019-02-27T09:13:05.472Z,11.30
2019-02-27T09:15:28.323Z,11.83
2019-02-27T09:17:59.292Z,10.33
2019-02-27T09:20:26.815Z,10.73
2019-02-27T09:22:55.875Z,11.00
2019-02-27T09:25:24.965Z,11.33
2019-02-27T09:27:53.737Z,12.50
2019-02-27T09:30:29.007Z,11.70
2019-02-27T09:32:53.810Z,11.13
2019-02-27T09:35:22.570Z,11.47
2019-02-27T09:37:52.016Z,11.00
2019-02-27T09:40:22.871Z,11.03
2019-02-27T09:42:52.987Z,10.87
2019-02-27T09:45:27.334Z,11.70
2019-02-27T09:47:59.634Z,10.63
2019-02-27T09:50:36.708Z,11.33
2019-02-27T09:53:05.456Z,10.73
2019-02-27T09:55:34.398Z,10.77
2019-02-27T09:58:03.276Z,10.87
2019-02-27T10:00:36.939Z,11.50
2019-02-27T10:03:05.583Z,10.50
2019-02-27T10:05:36.660Z,11.77
2019-02-27T10:08:05.152Z,11.17
2019-02-27T10:10:33.996Z,10.63
2019-02-27T10:13:03.314Z,10.30
2019-02-27T10:15:34.407Z,11.10
2019-02-27T10:18:02.942Z,11.70
2019-02-27T10:20:31.333Z,10.33
2019-02-27T10:22:59.738Z,10.40
2019-02-27T10:25:28.442Z,9.73
2019-02-27T10:27:57.118Z,10.80
2019-02-27T10:30:25.605Z,10.90
2019-02-27T10:32:54.063Z,10.73
2019-02-27T10:35:23.058Z,10.23
2019-02-27T10:37:54.304Z,11.10
2019-02-27T10:40:23.739Z,11.10
2019-02-27T10:42:52.410Z,11.17
2019-02-27T10:45:21.101Z,11.53
2019-02-27T10:47:49.484Z,12.20
2019-02-27T10:50:18.270Z,12.07
2019-02-27T10:52:46.650Z,10.80
2019-02-27T10:55:20.378Z,11.23
2019-02-27T10:57:48.960Z,11.20
2019-02-27T11:00:30.256Z,11.13
2019-02-27T11:02:59.733Z,11.67
2019-02-27T11:05:30.164Z,12.03
2019-02-27T11:07:58.784Z,11.57
2019-02-27T11:10:27.239Z,9.70
2019-02-27T11:12:56.196Z,10.80
2019-02-27T11:15:24.589Z,11.40
2019-02-27T11:17:53.544Z,10.93
2019-02-27T11:20:24.591Z,10.80
2019-02-27T11:22:52.947Z,10.97
2019-02-27T11:25:26.549Z,10.23
2019-02-27T11:27:54.945Z,12.23
2019-02-27T11:30:29.113Z,13.30
2019-02-27T11:32:58.054Z,13.50
2019-02-27T11:35:26.473Z,13.70
2019-02-27T11:37:55.130Z,12.80
2019-02-27T11:40:25.871Z,12.23
2019-02-27T11:42:54.278Z,11.10
2019-02-27T11:45:24.586Z,11.57
2019-02-27T11:47:53.185Z,12.20
2019-02-27T11:50:21.721Z,11.17
2019-02-27T11:52:50.682Z,10.10
2019-02-27T11:55:24.390Z,11.30
2019-02-27T11:57:52.679Z,11.27
2019-02-27T12:00:27.627Z,11.17
2019-02-27T12:02:56.569Z,10.47
2019-02-27T12:05:31.379Z,10.47
2019-02-27T12:07:56.072Z,11.57
2019-02-27T12:10:29.697Z,10.77
2019-02-27T12:13:00.671Z,11.23
2019-02-27T12:15:28.380Z,10.90
2019-02-27T12:18:00.316Z,11.30
2019-02-27T12:20:27.290Z,10.60
2019-02-27T12:22:55.974Z,11.07
2019-02-27T12:25:29.052Z,11.27
2019-02-27T12:27:56.420Z,10.30
2019-02-27T12:30:26.946Z,11.07
2019-02-27T12:32:56.717Z,10.30
2019-02-27T12:35:33.744Z,9.80
2019-02-27T12:38:06.814Z,10.37
2019-02-27T12:40:32.317Z,11.17
2019-02-27T12:43:00.957Z,10.50
2019-02-27T12:45:32.395Z,10.47
2019-02-27T12:48:00.773Z,11.23
2019-02-27T12:50:31.447Z,10.73
2019-02-27T12:53:00.437Z,9.50
2019-02-27T12:55:28.918Z,10.33
2019-02-27T12:57:58.186Z,9.57
2019-02-27T13:00:31.660Z,9.40
2019-02-27T13:03:00.117Z,9.87
2019-02-27T13:05:29.249Z,9.67
2019-02-27T13:07:57.893Z,8.87
2019-02-27T13:10:27.452Z,8.90
2019-02-27T13:12:57.547Z,10.20
2019-02-27T13:15:30.006Z,9.50
2019-02-27T13:17:58.529Z,11.03
2019-02-27T13:20:29.436Z,9.77
2019-02-27T13:22:57.820Z,9.87
2019-02-27T13:25:26.276Z,10.00
2019-02-27T13:27:54.963Z,9.40
2019-02-27T13:30:24.590Z,10.50
2019-02-27T13:32:52.992Z,11.03
2019-02-27T13:35:23.240Z,9.10
2019-02-27T13:37:52.301Z,9.47
2019-02-27T13:40:28.110Z,9.40
2019-02-27T13:42:56.591Z,9.67
2019-02-27T13:45:27.307Z,11.00
2019-02-27T13:47:55.792Z,9.70
2019-02-27T13:50:26.866Z,10.33
2019-02-27T13:52:54.990Z,10.20
2019-02-27T13:55:24.881Z,10.23
2019-02-27T13:57:53.272Z,10.63
2019-02-27T14:00:25.847Z,10.60
2019-02-27T14:02:54.623Z,10.83
2019-02-27T14:05:23.366Z,11.23
2019-02-27T14:07:57.146Z,9.73
2019-02-27T14:10:25.160Z,10.70
2019-02-27T14:12:53.555Z,9.97
2019-02-27T14:15:26.967Z,9.30
2019-02-27T14:17:53.122Z,8.80
2019-02-27T14:20:26.937Z,9.50
2019-02-27T14:22:53.901Z,9.20
2019-02-27T14:25:28.494Z,8.50
2019-02-27T14:27:54.965Z,9.00
2019-02-27T14:30:29.254Z,9.50
2019-02-27T14:32:57.904Z,9.00
2019-02-27T14:35:26.291Z,10.20
2019-02-27T14:37:54.683Z,9.77
2019-02-27T14:40:23.085Z,8.60
2019-02-27T14:42:54.925Z,9.07
2019-02-27T14:45:23.976Z,8.00
2019-02-27T14:47:52.883Z,7.80
2019-02-27T14:50:23.107Z,8.10
2019-02-27T14:52:51.799Z,7.13
2019-02-27T14:55:21.224Z,7.83
2019-02-27T14:57:51.089Z,7.80
2019-02-27T15:00:40.904Z,7.27
2019-02-27T15:03:08.955Z,7.90
2019-02-27T15:05:43.095Z,8.80
2019-02-27T15:08:07.912Z,8.43
2019-02-27T15:10:40.050Z,8.10
2019-02-27T15:13:06.496Z,8.20
2019-02-27T15:15:34.863Z,8.47
2019-02-27T15:18:03.255Z,8.53
2019-02-27T15:20:31.929Z,7.27
2019-02-27T15:23:00.318Z,7.23
2019-02-27T15:25:28.766Z,7.23
2019-02-27T15:27:58.844Z,7.20
2019-02-27T15:30:29.402Z,7.40
2019-02-27T15:32:57.786Z,7.63
2019-02-27T15:35:28.309Z,7.50
2019-02-27T15:37:56.478Z,6.83
2019-02-27T15:40:29.695Z,6.33
2019-02-27T15:42:57.555Z,6.57
2019-02-27T15:45:27.320Z,7.20
2019-02-27T15:47:55.780Z,6.70
2019-02-27T15:50:26.699Z,6.60
2019-02-27T15:52:56.075Z,6.60
2019-02-27T15:55:25.030Z,6.40
2019-02-27T15:57:54.219Z,6.47
2019-02-27T16:00:24.958Z,6.23
2019-02-27T16:02:53.619Z,6.77
2019-02-27T16:05:22.714Z,7.40
2019-02-27T16:07:51.190Z,6.80
2019-02-27T16:10:21.952Z,7.93
2019-02-27T16:12:50.505Z,7.33
2019-02-27T16:15:20.764Z,6.63
2019-02-27T16:17:49.527Z,7.60
2019-02-27T16:20:28.711Z,7.77
2019-02-27T16:22:57.337Z,7.83
2019-02-27T16:25:27.260Z,7.80
2019-02-27T16:27:56.190Z,8.57
2019-02-27T16:30:37.115Z,7.87
2019-02-27T16:33:07.029Z,7.57
2019-02-27T16:35:41.516Z,7.67
2019-02-27T16:38:05.724Z,8.00
2019-02-27T16:40:34.115Z,7.70
2019-02-27T16:43:02.530Z,7.83
2019-02-27T16:45:38.880Z,7.23
2019-02-27T16:48:07.643Z,8.37
2019-02-27T16:50:36.034Z,8.30
2019-02-27T16:53:04.756Z,7.80
2019-02-27T16:55:36.326Z,7.80
2019-02-27T16:58:04.192Z,8.47
2019-02-27T17:00:34.418Z,7.53
2019-02-27T17:03:03.159Z,12.77
2019-02-27T17:05:31.962Z,11.63
2019-02-27T17:08:02.423Z,9.63
2019-02-27T17:10:37.390Z,9.10
2019-02-27T17:13:05.921Z,8.97
2019-02-27T17:15:35.920Z,8.70
2019-02-27T17:18:04.722Z,7.60
2019-02-27T17:20:34.859Z,8.27
2019-02-27T17:23:10.475Z,8.00
2019-02-27T17:25:35.095Z,8.97
2019-02-27T17:28:03.509Z,10.00
2019-02-27T17:30:37.695Z,9.10
2019-02-27T17:33:07.315Z,8.80
2019-02-27T17:35:35.748Z,8.87
2019-02-27T17:38:04.338Z,8.17
2019-02-27T17:40:36.298Z,8.70
2019-02-27T17:43:03.072Z,9.00
2019-02-27T17:45:31.763Z,10.00
2019-02-27T17:48:00.114Z,9.40
2019-02-27T17:50:31.735Z,9.37
2019-02-27T17:52:59.369Z,8.40
2019-02-27T17:55:27.746Z,8.43
2019-02-27T17:57:58.485Z,8.57
2019-02-27T18:00:41.243Z,8.87
2019-02-27T18:03:09.648Z,8.53
2019-02-27T18:05:38.177Z,9.97
2019-02-27T18:08:06.750Z,11.17
2019-02-27T18:10:37.524Z,11.70
2019-02-27T18:13:05.388Z,9.80
2019-02-27T18:15:34.001Z,10.37
2019-02-27T18:18:02.408Z,11.03
2019-02-27T18:20:32.132Z,12.50
2019-02-27T18:23:00.764Z,18.60
2019-02-27T18:25:29.245Z,19.47
2019-02-27T18:27:59.759Z,16.57
2019-02-27T18:30:27.961Z,14.00
2019-02-27T18:32:56.344Z,11.03
2019-02-27T18:35:28.810Z,10.37
2019-02-27T18:37:55.211Z,10.93
2019-02-27T18:40:23.677Z,11.70
2019-02-27T18:42:55.253Z,16.33
2019-02-27T18:45:27.359Z,15.03
2019-02-27T18:47:55.975Z,18.60
2019-02-27T18:50:25.760Z,14.90
2019-02-27T18:52:54.732Z,17.77
2019-02-27T18:55:23.155Z,16.83
2019-02-27T18:57:51.585Z,15.10
2019-02-27T19:00:24.917Z,13.40
2019-02-27T19:03:01.368Z,10.53
2019-02-27T19:05:29.908Z,7.80
2019-02-27T19:07:58.630Z,9.57
2019-02-27T19:10:27.188Z,9.10
2019-02-27T19:12:55.583Z,9.70
2019-02-27T19:15:25.662Z,8.80
2019-02-27T19:17:54.603Z,10.03
2019-02-27T19:20:42.033Z,9.50
2019-02-27T19:23:10.493Z,9.70
2019-02-27T19:25:39.006Z,9.00
2019-02-27T19:28:07.532Z,9.03
2019-02-27T19:30:38.692Z,8.47
2019-02-27T19:33:07.341Z,9.33
2019-02-27T19:49:05.686Z,10.80
2019-02-27T19:51:46.957Z,9.90
